My Status Quo — ZGDF5 — position and weather

sailwx.info

Track history (hours):
 
Tides and Currents Weather Stations Pressure Air Temp Water Temp Dewpoint Dewpoint Depression Visibility Wind Speed Wind Dir Waves Ship Positions

My Status Quo

Last reported at 2018-Jun-11 23:45 UTC. Time now 2018-Jun-20 07:17 UTC.
Position N 25°05' W 077°19'.
Warning: this ship's position is 8 days out of date.

; draft 2.3 m.

Type: Pleasure craft. MMSI: 319053800.

Date/timePositionNaut miles runAvg speedWind from/ knotsBaromVisibWave heightAir tempDewpointWater temp
2018-Jun-11 23:45N 25°05' W 077°19'0 0.0
2018-Jun-11 23:15N 25°05' W 077°19'0 0.0
2018-Jun-11 22:57N 25°05' W 077°19'25 0.9
2018-Jun-10 17:56N 24°48' W 076°59'510.3
2018-Jun-10 17:26N 24°45' W 076°54'4 9.1
2018-Jun-10 17:00N 24°43' W 076°51'1 2.3
2018-Jun-10 16:27N 24°43' W 076°49'0 0.0
2018-Jun-09 21:09N 24°43' W 076°49'0 0.0
2018-Jun-09 20:57N 24°43' W 076°49'0 0.0
2018-Jun-09 20:27N 24°43' W 076°49'0 0.0
2018-Jun-09 19:57N 24°43' W 076°49'0 0.0
2018-Jun-09 19:27N 24°43' W 076°49'0 0.0
2018-Jun-09 18:57N 24°43' W 076°49'0 0.0
2018-Jun-09 18:27N 24°43' W 076°49'0 0.0
2018-Jun-09 17:54N 24°43' W 076°49'  
2018-Jun-07 03:28N 26°24' W 079°50'614.0
2018-Jun-07 03:01N 26°19' W 079°54'713.4
2018-Jun-07 02:30N 26°13' W 079°59'612.5
2018-Jun-07 02:00N 26°09' W 080°03'5 9.2
2018-Jun-07 01:30N 26°06' W 080°07'1 1.4
2018-Jun-07 01:00N 26°06' W 080°07'0 0.0
2018-Jun-07 00:30N 26°06' W 080°07'0 0.0
2018-Jun-07 00:00N 26°06' W 080°07'0 0.0
2018-Jun-06 22:48N 26°06' W 080°07'0 0.0
2018-Jun-06 22:21N 26°06' W 080°07'0 0.0
2018-Jun-06 21:48N 26°06' W 080°07'0 0.0
2018-Jun-06 21:21N 26°06' W 080°07'0 0.0
2018-Jun-06 20:51N 26°06' W 080°07'0 0.0
2018-Jun-06 20:24N 26°06' W 080°07'0 0.0
2018-Jun-06 19:54N 26°06' W 080°07'0 0.0
2018-Jun-06 19:27N 26°06' W 080°07'0 0.0
2018-Jun-06 18:57N 26°06' W 080°07'0 0.0
2018-Jun-06 18:27N 26°06' W 080°07'0 0.0
2018-Jun-06 17:56N 26°06' W 080°07'0 0.0
2018-Jun-06 17:23N 26°06' W 080°07'0 0.0
2018-Jun-06 16:56N 26°06' W 080°07'0 0.0
2018-Jun-06 16:30N 26°06' W 080°07'0 0.0
2018-Jun-06 16:00N 26°06' W 080°07'0 0.0
2018-Jun-06 15:27N 26°06' W 080°07'0 0.0
2018-Jun-06 14:45N 26°06' W 080°07'0 0.0
2018-Jun-06 14:30N 26°06' W 080°07'0 0.0
2018-Jun-06 13:59N 26°06' W 080°07'0 0.0
2018-Jun-06 13:26N 26°06' W 080°07'0 0.0
2018-Jun-06 12:59N 26°06' W 080°07'0 0.0
2018-Jun-06 12:30N 26°06' W 080°07'0 0.0
2018-Jun-06 12:00N 26°06' W 080°07'0 0.0
2018-Jun-06 11:30N 26°06' W 080°07'0 0.0
2018-Jun-06 10:59N 26°06' W 080°07'0 0.0
2018-Jun-06 10:30N 26°06' W 080°07'0 0.0
2018-Jun-06 09:50N 26°06' W 080°07'0 0.0
2018-Jun-06 09:29N 26°06' W 080°07'0 0.0
2018-Jun-06 08:50N 26°06' W 080°07'0 0.0
2018-Jun-06 08:24N 26°06' W 080°07'0 0.0
2018-Jun-06 07:54N 26°06' W 080°07'0 0.0
2018-Jun-06 07:24N 26°06' W 080°07'0 0.0
2018-Jun-06 06:54N 26°06' W 080°07'0 0.0
2018-Jun-06 06:23N 26°06' W 080°07'0 0.0
2018-Jun-06 05:53N 26°06' W 080°07'0 0.0
2018-Jun-06 05:23N 26°06' W 080°07'0 0.0
2018-Jun-06 04:57N 26°06' W 080°07'0 0.0
2018-Jun-06 04:26N 26°06' W 080°07'0 0.0
2018-Jun-06 03:57N 26°06' W 080°07'0 0.0
2018-Jun-06 03:26N 26°06' W 080°07'0 0.0
2018-Jun-06 02:56N 26°06' W 080°07'0 0.0
2018-Jun-06 02:26N 26°06' W 080°07'0 0.0
2018-Jun-06 01:56N 26°06' W 080°07'0 0.0
2018-Jun-06 01:29N 26°06' W 080°07'0 0.0
2018-Jun-06 00:59N 26°06' W 080°07'0 0.0
2018-Jun-06 00:29N 26°06' W 080°07'0 0.0
2018-Jun-05 23:59N 26°06' W 080°07'0 0.0
2018-Jun-05 23:29N 26°06' W 080°07'0 0.0
2018-Jun-05 22:59N 26°06' W 080°07'0 0.0
2018-Jun-05 22:29N 26°06' W 080°07'0 0.0
2018-Jun-05 21:56N 26°06' W 080°07'0 0.4
2018-Jun-05 21:30N 26°06' W 080°07'2 3.6
2018-Jun-05 21:00N 26°06' W 080°05'2 4.8
2018-Jun-05 20:30N 26°07' W 080°08'2 3.4
2018-Jun-05 20:00N 26°07' W 080°09'2 3.6
2018-Jun-05 19:30N 26°05' W 080°11'1 0.9
2018-Jun-05 18:56N 26°05' W 080°11'0 0.0
2018-Jun-05 18:29N 26°05' W 080°11'0 0.0
2018-Jun-05 17:59N 26°05' W 080°11'0 0.0
2018-Jun-05 17:29N 26°05' W 080°11'0 0.0
2018-Jun-05 16:59N 26°05' W 080°11'  
Track history (hours):
 
Tides and Currents Weather Stations Pressure Air Temp Water Temp Dewpoint Dewpoint Depression Visibility Wind Speed Wind Dir Waves Ship Positions

My Status Quo

Last reported at 2018-Jun-11 23:45 UTC. Time now 2018-Jun-20 07:17 UTC.
Position N 25°05' W 077°19'.
Warning: this ship's position is 8 days out of date.

; draft 2.3 m.

Type: Pleasure craft. MMSI: 319053800.

Date/timePositionNaut miles runAvg speedWind from/ knotsBaromVisibWave heightAir tempDewpointWater temp
2018-Jun-11 23:45N 25°05' W 077°19'0 0.0
2018-Jun-11 23:15N 25°05' W 077°19'0 0.0
2018-Jun-11 22:57N 25°05' W 077°19'25 0.9
2018-Jun-10 17:56N 24°48' W 076°59'510.3
2018-Jun-10 17:26N 24°45' W 076°54'4 9.1
2018-Jun-10 17:00N 24°43' W 076°51'1 2.3
2018-Jun-10 16:27N 24°43' W 076°49'0 0.0
2018-Jun-09 21:09N 24°43' W 076°49'0 0.0
2018-Jun-09 20:57N 24°43' W 076°49'0 0.0
2018-Jun-09 20:27N 24°43' W 076°49'0 0.0
2018-Jun-09 19:57N 24°43' W 076°49'0 0.0
2018-Jun-09 19:27N 24°43' W 076°49'0 0.0
2018-Jun-09 18:57N 24°43' W 076°49'0 0.0
2018-Jun-09 18:27N 24°43' W 076°49'0 0.0
2018-Jun-09 17:54N 24°43' W 076°49'  
2018-Jun-07 03:28N 26°24' W 079°50'614.0
2018-Jun-07 03:01N 26°19' W 079°54'713.4
2018-Jun-07 02:30N 26°13' W 079°59'612.5
2018-Jun-07 02:00N 26°09' W 080°03'5 9.2
2018-Jun-07 01:30N 26°06' W 080°07'1 1.4
2018-Jun-07 01:00N 26°06' W 080°07'0 0.0
2018-Jun-07 00:30N 26°06' W 080°07'0 0.0
2018-Jun-07 00:00N 26°06' W 080°07'0 0.0
2018-Jun-06 22:48N 26°06' W 080°07'0 0.0
2018-Jun-06 22:21N 26°06' W 080°07'0 0.0
2018-Jun-06 21:48N 26°06' W 080°07'0 0.0
2018-Jun-06 21:21N 26°06' W 080°07'0 0.0
2018-Jun-06 20:51N 26°06' W 080°07'0 0.0
2018-Jun-06 20:24N 26°06' W 080°07'0 0.0
2018-Jun-06 19:54N 26°06' W 080°07'0 0.0
2018-Jun-06 19:27N 26°06' W 080°07'0 0.0
2018-Jun-06 18:57N 26°06' W 080°07'0 0.0
2018-Jun-06 18:27N 26°06' W 080°07'0 0.0
2018-Jun-06 17:56N 26°06' W 080°07'0 0.0
2018-Jun-06 17:23N 26°06' W 080°07'0 0.0
2018-Jun-06 16:56N 26°06' W 080°07'0 0.0
2018-Jun-06 16:30N 26°06' W 080°07'0 0.0
2018-Jun-06 16:00N 26°06' W 080°07'0 0.0
2018-Jun-06 15:27N 26°06' W 080°07'0 0.0
2018-Jun-06 14:45N 26°06' W 080°07'0 0.0
2018-Jun-06 14:30N 26°06' W 080°07'0 0.0
2018-Jun-06 13:59N 26°06' W 080°07'0 0.0
2018-Jun-06 13:26N 26°06' W 080°07'0 0.0
2018-Jun-06 12:59N 26°06' W 080°07'0 0.0
2018-Jun-06 12:30N 26°06' W 080°07'0 0.0
2018-Jun-06 12:00N 26°06' W 080°07'0 0.0
2018-Jun-06 11:30N 26°06' W 080°07'0 0.0
2018-Jun-06 10:59N 26°06' W 080°07'0 0.0
2018-Jun-06 10:30N 26°06' W 080°07'0 0.0
2018-Jun-06 09:50N 26°06' W 080°07'0 0.0
2018-Jun-06 09:29N 26°06' W 080°07'0 0.0
2018-Jun-06 08:50N 26°06' W 080°07'0 0.0
2018-Jun-06 08:24N 26°06' W 080°07'0 0.0
2018-Jun-06 07:54N 26°06' W 080°07'0 0.0
2018-Jun-06 07:24N 26°06' W 080°07'0 0.0
2018-Jun-06 06:54N 26°06' W 080°07'0 0.0
2018-Jun-06 06:23N 26°06' W 080°07'0 0.0
2018-Jun-06 05:53N 26°06' W 080°07'0 0.0
2018-Jun-06 05:23N 26°06' W 080°07'0 0.0
2018-Jun-06 04:57N 26°06' W 080°07'0 0.0
2018-Jun-06 04:26N 26°06' W 080°07'0 0.0
2018-Jun-06 03:57N 26°06' W 080°07'0 0.0
2018-Jun-06 03:26N 26°06' W 080°07'0 0.0
2018-Jun-06 02:56N 26°06' W 080°07'0 0.0
2018-Jun-06 02:26N 26°06' W 080°07'0 0.0
2018-Jun-06 01:56N 26°06' W 080°07'0 0.0
2018-Jun-06 01:29N 26°06' W 080°07'0 0.0
2018-Jun-06 00:59N 26°06' W 080°07'0 0.0
2018-Jun-06 00:29N 26°06' W 080°07'0 0.0
2018-Jun-05 23:59N 26°06' W 080°07'0 0.0
2018-Jun-05 23:29N 26°06' W 080°07'0 0.0
2018-Jun-05 22:59N 26°06' W 080°07'0 0.0
2018-Jun-05 22:29N 26°06' W 080°07'0 0.0
2018-Jun-05 21:56N 26°06' W 080°07'0 0.4
2018-Jun-05 21:30N 26°06' W 080°07'2 3.6
2018-Jun-05 21:00N 26°06' W 080°05'2 4.8
2018-Jun-05 20:30N 26°07' W 080°08'2 3.4
2018-Jun-05 20:00N 26°07' W 080°09'2 3.6
2018-Jun-05 19:30N 26°05' W 080°11'1 0.9
2018-Jun-05 18:56N 26°05' W 080°11'0 0.0
2018-Jun-05 18:29N 26°05' W 080°11'0 0.0
2018-Jun-05 17:59N 26°05' W 080°11'0 0.0
2018-Jun-05 17:29N 26°05' W 080°11'0 0.0
2018-Jun-05 16:59N 26°05' W 080°11'  

Dump ship's entire track history